createdAt,value
2023-01-21T00:01:03.131Z,16.73
2023-01-21T00:03:30.762Z,18.63
2023-01-21T00:05:58.395Z,17.75
2023-01-21T00:08:26.728Z,17.48
2023-01-21T00:10:54.479Z,16.13
2023-01-21T00:13:22.459Z,19.77
2023-01-21T00:15:50.122Z,13.85
2023-01-21T00:18:17.465Z,16.50
2023-01-21T00:20:45.915Z,19.52
2023-01-21T00:23:13.212Z,16.58
2023-01-21T00:25:40.538Z,20.65
2023-01-21T00:28:07.860Z,15.35
2023-01-21T00:30:36.959Z,20.08
2023-01-21T00:33:04.663Z,16.38
2023-01-21T00:35:31.935Z,17.58
2023-01-21T00:37:59.347Z,19.25
2023-01-21T00:40:27.611Z,14.93
2023-01-21T00:42:54.923Z,14.60
2023-01-21T00:45:22.252Z,16.73
2023-01-21T00:47:49.771Z,18.55
2023-01-21T00:50:17.461Z,23.92
2023-01-21T00:52:44.914Z,20.35
2023-01-21T00:55:12.155Z,15.05
2023-01-21T00:57:39.564Z,11.18
2023-01-21T01:00:11.088Z,15.20
2023-01-21T01:02:38.599Z,20.13
2023-01-21T01:05:08.332Z,20.65
2023-01-21T01:07:35.733Z,12.40
2023-01-21T01:10:03.195Z,12.18
2023-01-21T01:12:30.527Z,14.35
2023-01-21T01:15:00.747Z,17.73
2023-01-21T01:17:28.216Z,13.98
2023-01-21T01:19:55.935Z,18.42
2023-01-21T01:22:23.315Z,17.10
2023-01-21T01:24:51.062Z,38.85
2023-01-21T01:27:18.380Z,20.33
2023-01-21T01:29:45.721Z,27.45
2023-01-21T01:32:13.035Z,15.27
2023-01-21T01:34:40.468Z,15.70
2023-01-21T01:37:07.914Z,17.90
2023-01-21T01:39:35.801Z,16.63
2023-01-21T01:42:03.665Z,20.45
2023-01-21T01:44:57.690Z,14.75
2023-01-21T01:47:42.515Z,14.05
2023-01-21T01:50:12.957Z,10.90
2023-01-21T01:52:42.049Z,14.77
2023-01-21T01:55:11.282Z,31.30
2023-01-21T01:57:41.810Z,16.73
2023-01-21T02:00:11.640Z,12.23
2023-01-21T02:02:40.510Z,24.25
2023-01-21T02:05:10.532Z,18.30
2023-01-21T02:07:43.797Z,17.50
2023-01-21T02:10:15.533Z,14.93
2023-01-21T02:12:44.385Z,16.70
2023-01-21T02:15:12.104Z,18.95
2023-01-21T02:17:48.203Z,14.52
2023-01-21T02:20:45.061Z,18.38
2023-01-21T02:23:33.934Z,16.92
2023-01-21T02:26:25.561Z,16.60
2023-01-21T02:29:11.442Z,16.13
2023-01-21T02:31:58.752Z,20.00
2023-01-21T02:34:52.519Z,16.95
2023-01-21T02:37:25.438Z,24.60
2023-01-21T02:40:05.585Z,16.33
2023-01-21T02:42:39.982Z,15.65
2023-01-21T02:45:38.009Z,18.20
2023-01-21T02:48:16.225Z,16.10
2023-01-21T02:50:47.905Z,22.70
2023-01-21T02:53:33.836Z,19.92
2023-01-21T02:56:06.350Z,17.65
2023-01-21T02:58:37.445Z,14.82
2023-01-21T03:01:30.571Z,18.55
2023-01-21T03:04:11.800Z,14.10
2023-01-21T03:06:51.011Z,16.42
2023-01-21T03:09:25.558Z,16.08
2023-01-21T03:12:02.247Z,16.48
2023-01-21T03:14:56.601Z,17.90
2023-01-21T03:17:41.628Z,15.73
2023-01-21T03:20:12.732Z,17.25
2023-01-21T03:22:41.529Z,14.57
2023-01-21T03:25:11.750Z,20.38
2023-01-21T03:27:42.978Z,13.45
2023-01-21T03:30:14.359Z,12.80
2023-01-21T03:32:45.303Z,17.05
2023-01-21T03:35:16.538Z,13.30
2023-01-21T03:37:49.327Z,18.42
2023-01-21T03:40:23.045Z,16.88
2023-01-21T03:42:51.622Z,21.58
2023-01-21T03:45:40.263Z,19.48
2023-01-21T03:48:34.244Z,19.80
2023-01-21T03:51:08.618Z,19.95
2023-01-21T03:53:36.116Z,17.58
2023-01-21T03:56:04.354Z,16.80
2023-01-21T03:58:31.659Z,14.63
2023-01-21T04:00:58.984Z,15.43
2023-01-21T04:03:26.320Z,18.13
2023-01-21T04:05:53.753Z,15.90
2023-01-21T04:08:21.054Z,17.90
2023-01-21T04:10:48.332Z,16.48
2023-01-21T04:13:15.595Z,17.90
2023-01-21T04:15:43.049Z,25.63
2023-01-21T04:18:10.355Z,30.98
2023-01-21T04:20:37.697Z,14.15
2023-01-21T04:23:04.984Z,14.40
2023-01-21T04:25:32.439Z,21.15
2023-01-21T04:27:59.750Z,23.75
2023-01-21T04:30:27.137Z,24.48
2023-01-21T04:32:54.452Z,24.73
2023-01-21T04:35:21.701Z,19.75
2023-01-21T04:37:49.142Z,18.67
2023-01-21T04:40:16.812Z,12.88
2023-01-21T04:42:44.364Z,18.30
2023-01-21T04:45:11.907Z,16.85
2023-01-21T04:47:44.648Z,14.82
2023-01-21T04:50:12.841Z,17.45
2023-01-21T04:52:41.048Z,18.63
2023-01-21T04:55:09.680Z,20.88
2023-01-21T04:57:37.923Z,18.35
2023-01-21T05:00:06.671Z,20.58
2023-01-21T05:02:34.239Z,19.00
2023-01-21T05:05:01.720Z,19.98
2023-01-21T05:07:29.163Z,22.42
2023-01-21T05:09:56.457Z,24.73
2023-01-21T05:12:23.727Z,20.17
2023-01-21T05:14:54.929Z,20.95
2023-01-21T05:17:22.205Z,24.38
2023-01-21T05:19:50.896Z,18.92
2023-01-21T05:22:18.847Z,19.15
2023-01-21T05:24:46.132Z,24.27
2023-01-21T05:27:13.507Z,26.27
2023-01-21T05:29:40.809Z,21.35
2023-01-21T05:32:08.952Z,19.02
2023-01-21T05:34:36.269Z,24.15
2023-01-21T05:37:03.551Z,24.50
2023-01-21T05:39:30.795Z,21.27
2023-01-21T05:41:58.082Z,20.73
2023-01-21T05:44:25.349Z,23.40
2023-01-21T05:46:52.682Z,25.08
2023-01-21T05:49:20.025Z,22.45
2023-01-21T05:51:47.344Z,27.67
2023-01-21T05:54:14.723Z,28.23
2023-01-21T05:56:42.010Z,18.17
2023-01-21T05:59:09.698Z,24.48
2023-01-21T06:01:36.938Z,21.55
2023-01-21T06:04:04.324Z,19.10
2023-01-21T06:06:31.645Z,22.10
2023-01-21T06:08:59.007Z,31.92
2023-01-21T06:11:26.314Z,21.60
2023-01-21T06:13:53.588Z,23.98
2023-01-21T06:16:20.907Z,24.05
2023-01-21T06:18:48.419Z,29.05
2023-01-21T06:21:15.679Z,23.17
2023-01-21T06:23:43.062Z,20.77
2023-01-21T06:26:10.311Z,26.50
2023-01-21T06:28:37.632Z,21.80
2023-01-21T06:31:05.166Z,23.50
2023-01-21T06:33:32.483Z,24.42
2023-01-21T06:35:59.809Z,24.05
2023-01-21T06:38:27.178Z,21.70
2023-01-21T06:40:54.550Z,24.92
2023-01-21T06:43:22.069Z,19.63
2023-01-21T06:45:49.394Z,30.45
2023-01-21T06:48:16.697Z,27.20
2023-01-21T06:50:44.051Z,24.67
2023-01-21T06:53:12.352Z,24.73
2023-01-21T06:55:39.603Z,29.15
2023-01-21T06:58:06.901Z,25.38
2023-01-21T07:00:34.314Z,22.23
2023-01-21T07:03:01.796Z,26.55
2023-01-21T07:05:29.196Z,26.38
2023-01-21T07:07:59.790Z,22.02
2023-01-21T07:10:27.194Z,24.17
2023-01-21T07:12:54.504Z,25.00
2023-01-21T07:15:21.816Z,27.50
2023-01-21T07:17:49.081Z,25.58
2023-01-21T07:20:16.674Z,29.70
2023-01-21T07:22:44.064Z,32.78
2023-01-21T07:25:11.441Z,30.35
2023-01-21T07:27:38.938Z,27.52
2023-01-21T07:30:06.942Z,35.92
2023-01-21T07:32:34.277Z,27.85
2023-01-21T07:35:01.543Z,26.55
2023-01-21T07:37:28.803Z,31.02
2023-01-21T07:39:56.671Z,31.02
2023-01-21T07:42:23.994Z,29.63
2023-01-21T07:44:51.276Z,27.52
2023-01-21T07:47:18.606Z,32.03
2023-01-21T07:49:45.916Z,27.50
2023-01-21T07:52:13.167Z,26.00
2023-01-21T07:54:40.462Z,27.05
2023-01-21T07:57:07.758Z,32.03
2023-01-21T07:59:35.036Z,34.15
2023-01-21T08:02:02.525Z,32.35
2023-01-21T08:04:29.895Z,34.15
2023-01-21T08:06:57.276Z,31.65
2023-01-21T08:09:25.347Z,32.53
2023-01-21T08:11:52.660Z,30.80
2023-01-21T08:14:19.913Z,30.92
2023-01-21T08:16:47.207Z,29.20
2023-01-21T08:19:14.485Z,32.88
2023-01-21T08:21:41.869Z,34.83
2023-01-21T08:24:10.589Z,29.13
2023-01-21T08:26:38.262Z,34.25
2023-01-21T08:29:05.576Z,35.63
2023-01-21T08:31:32.991Z,33.25
2023-01-21T08:34:00.861Z,27.38
2023-01-21T08:36:28.203Z,25.70
2023-01-21T08:38:58.595Z,34.40
2023-01-21T08:41:26.176Z,30.35
2023-01-21T08:43:53.522Z,29.40
2023-01-21T08:46:20.792Z,37.97
2023-01-21T08:48:48.060Z,33.20
2023-01-21T08:51:15.723Z,39.65
2023-01-21T08:53:43.058Z,45.53
2023-01-21T08:56:10.560Z,34.40
2023-01-21T08:58:38.802Z,33.63
2023-01-21T09:01:07.896Z,30.58
2023-01-21T09:03:35.402Z,36.45
2023-01-21T09:06:04.429Z,33.85
2023-01-21T09:08:32.161Z,38.55
2023-01-21T09:11:00.919Z,34.67
2023-01-21T09:13:33.937Z,33.97
2023-01-21T09:16:02.044Z,37.58
2023-01-21T09:18:29.415Z,38.15
2023-01-21T09:21:01.263Z,34.65
2023-01-21T09:23:28.800Z,41.13
2023-01-21T09:26:08.736Z,36.03
2023-01-21T09:28:38.337Z,32.05
2023-01-21T09:31:08.399Z,36.53
2023-01-21T09:33:37.799Z,33.45
2023-01-21T09:36:08.092Z,53.55
2023-01-21T09:38:35.483Z,37.22
2023-01-21T09:41:30.473Z,36.13
2023-01-21T09:44:18.066Z,40.88
2023-01-21T09:46:52.171Z,38.58
2023-01-21T09:49:26.115Z,42.67
2023-01-21T09:52:22.552Z,42.97
2023-01-21T09:54:50.177Z,35.37
2023-01-21T09:57:36.217Z,38.00
2023-01-21T10:00:27.325Z,36.10
2023-01-21T10:03:04.674Z,37.88
2023-01-21T10:05:57.989Z,44.35
2023-01-21T10:08:58.627Z,48.20
2023-01-21T10:11:53.649Z,45.42
2023-01-21T10:14:34.136Z,35.28
2023-01-21T10:17:11.626Z,38.90
2023-01-21T10:19:51.726Z,52.30
2023-01-21T10:22:28.048Z,43.95
2023-01-21T10:27:35.505Z,44.08
2023-01-21T10:30:21.382Z,36.92
2023-01-21T10:32:52.053Z,35.93
2023-01-21T10:35:24.581Z,41.33
2023-01-21T10:38:07.118Z,37.65
2023-01-21T10:40:56.194Z,40.75
2023-01-21T10:44:03.717Z,39.65
2023-01-21T10:46:49.572Z,41.30
2023-01-21T10:49:48.652Z,45.78
2023-01-21T10:52:46.350Z,44.33
2023-01-21T10:55:49.972Z,35.70
2023-01-21T10:58:28.988Z,36.20
2023-01-21T11:01:03.109Z,32.15
2023-01-21T11:03:44.403Z,41.13
2023-01-21T11:06:16.097Z,36.10
2023-01-21T11:08:46.658Z,39.22
2023-01-21T11:11:18.627Z,42.60
2023-01-21T11:13:45.975Z,39.13
2023-01-21T11:16:13.439Z,40.20
2023-01-21T11:18:42.947Z,39.38
2023-01-21T11:21:20.374Z,44.97
2023-01-21T11:23:55.717Z,44.38
2023-01-21T11:26:32.678Z,35.35
2023-01-21T11:29:27.153Z,33.17
2023-01-21T11:32:03.965Z,35.13
2023-01-21T11:34:31.811Z,28.63
2023-01-21T11:37:05.623Z,35.22
2023-01-21T11:39:40.784Z,31.13
2023-01-21T11:42:12.968Z,38.90
2023-01-21T11:44:52.706Z,36.35
2023-01-21T11:47:48.767Z,32.15
2023-01-21T11:50:30.066Z,33.88
2023-01-21T11:53:11.347Z,32.83
2023-01-21T11:55:40.816Z,35.53
2023-01-21T11:58:25.591Z,32.53
2023-01-21T12:00:55.813Z,38.08
2023-01-21T12:03:29.416Z,28.20
2023-01-21T12:05:57.453Z,31.55
2023-01-21T12:08:30.979Z,34.10
2023-01-21T12:11:03.959Z,31.92
2023-01-21T12:13:58.344Z,28.58
2023-01-21T12:16:32.587Z,26.92
2023-01-21T12:19:37.064Z,30.42
2023-01-21T12:22:16.610Z,29.73
2023-01-21T12:25:25.131Z,32.55
2023-01-21T12:28:10.130Z,29.15
2023-01-21T12:30:55.126Z,24.02
2023-01-21T12:33:40.557Z,28.10
2023-01-21T12:36:18.682Z,24.52
2023-01-21T12:39:05.892Z,22.90
2023-01-21T12:41:34.668Z,26.60
2023-01-21T12:44:36.031Z,23.45
2023-01-21T12:47:21.180Z,23.65
2023-01-21T12:49:57.752Z,21.33
2023-01-21T12:52:37.043Z,17.45
2023-01-21T12:55:20.239Z,22.20
2023-01-21T12:57:57.696Z,29.55
2023-01-21T13:00:29.319Z,17.05
2023-01-21T13:03:33.323Z,22.13
2023-01-21T13:06:09.332Z,17.92
2023-01-21T13:08:39.867Z,17.27
2023-01-21T13:11:19.019Z,21.00
2023-01-21T13:14:08.574Z,21.50
2023-01-21T13:16:40.355Z,25.15
2023-01-21T13:19:12.959Z,18.13
2023-01-21T13:21:50.197Z,22.67
2023-01-21T13:24:34.612Z,27.00
2023-01-21T13:27:28.054Z,20.88
2023-01-21T13:30:07.582Z,24.52
2023-01-21T13:32:42.315Z,22.15
2023-01-21T13:35:37.069Z,20.40
2023-01-21T13:38:22.961Z,18.52
2023-01-21T13:40:58.840Z,23.27
2023-01-21T13:43:32.215Z,20.67
2023-01-21T13:46:43.987Z,22.30
2023-01-21T13:49:22.034Z,20.88
2023-01-21T13:52:02.927Z,19.38
2023-01-21T13:54:46.491Z,25.40
2023-01-21T13:57:24.148Z,20.55
2023-01-21T14:00:04.628Z,24.02
2023-01-21T14:02:51.440Z,24.60
2023-01-21T14:05:39.490Z,18.15
2023-01-21T14:08:39.167Z,18.45
2023-01-21T14:11:21.793Z,24.08
2023-01-21T14:14:00.573Z,19.02
2023-01-21T14:16:34.735Z,23.95
2023-01-21T14:19:05.149Z,18.33
2023-01-21T14:21:45.278Z,15.00
2023-01-21T14:24:56.359Z,12.73
2023-01-21T14:27:39.488Z,12.30
2023-01-21T14:30:13.700Z,13.05
2023-01-21T14:33:12.136Z,13.80
2023-01-21T14:36:12.980Z,13.82
2023-01-21T14:38:59.028Z,12.02
2023-01-21T14:41:55.218Z,16.87
2023-01-21T14:45:01.476Z,10.60
2023-01-21T14:47:31.463Z,15.90
2023-01-21T14:49:59.619Z,10.75
2023-01-21T14:52:37.771Z,10.68
2023-01-21T14:55:24.451Z,14.38
2023-01-21T14:57:53.394Z,9.20
2023-01-21T15:00:25.477Z,12.63
2023-01-21T15:03:09.188Z,17.15
2023-01-21T15:05:40.822Z,13.27
2023-01-21T15:08:46.348Z,11.77
2023-01-21T15:11:34.809Z,11.32
2023-01-21T15:14:07.441Z,10.68
2023-01-21T15:16:37.924Z,8.95
2023-01-21T15:19:08.331Z,13.43
2023-01-21T15:21:41.455Z,11.45
2023-01-21T15:24:26.040Z,12.60
2023-01-21T15:27:16.760Z,17.33
2023-01-21T15:29:47.290Z,11.88
2023-01-21T15:32:23.147Z,10.82
2023-01-21T15:34:54.546Z,11.02
2023-01-21T15:37:24.885Z,11.77
2023-01-21T15:39:56.863Z,14.45
2023-01-21T15:42:50.499Z,15.65
2023-01-21T15:45:42.625Z,13.55
2023-01-21T15:48:45.743Z,16.30
2023-01-21T15:51:53.805Z,10.57
2023-01-21T15:54:28.578Z,15.52
2023-01-21T15:57:26.534Z,11.95
2023-01-21T16:00:11.006Z,15.38
2023-01-21T16:02:58.031Z,17.33
2023-01-21T16:05:38.869Z,15.68
2023-01-21T16:08:26.082Z,15.40
2023-01-21T16:11:07.531Z,16.88
2023-01-21T16:13:51.148Z,15.90
2023-01-21T16:16:51.217Z,18.63
2023-01-21T16:19:25.959Z,17.02
2023-01-21T16:21:58.758Z,18.88
2023-01-21T16:24:28.884Z,14.05
2023-01-21T16:27:15.779Z,18.38
2023-01-21T16:32:18.140Z,19.42
2023-01-21T16:34:46.842Z,18.13
2023-01-21T16:37:17.881Z,24.00
2023-01-21T16:39:45.478Z,23.75
2023-01-21T16:42:36.810Z,29.27
2023-01-21T16:45:26.122Z,26.13
2023-01-21T16:47:58.981Z,55.33
2023-01-21T16:50:28.808Z,98.30
2023-01-21T16:52:57.662Z,342.85
2023-01-21T16:55:28.632Z,56.45
2023-01-21T16:57:58.062Z,34.65
2023-01-21T17:00:29.641Z,25.90
2023-01-21T17:02:58.320Z,24.95
2023-01-21T17:05:31.953Z,20.63
2023-01-21T17:08:03.261Z,22.52
2023-01-21T17:10:37.734Z,25.38
2023-01-21T17:13:07.479Z,27.45
2023-01-21T17:15:43.393Z,26.23
2023-01-21T17:18:38.837Z,19.30
2023-01-21T17:21:15.542Z,23.05
2023-01-21T17:23:47.524Z,25.27
2023-01-21T17:26:22.366Z,30.05
2023-01-21T17:28:57.616Z,31.00
2023-01-21T17:31:43.034Z,25.33
2023-01-21T17:34:16.546Z,25.85
2023-01-21T17:36:46.539Z,26.25
2023-01-21T17:39:17.352Z,24.35
2023-01-21T17:41:46.573Z,27.88
2023-01-21T17:44:24.298Z,22.45
2023-01-21T17:46:55.504Z,26.25
2023-01-21T17:49:24.693Z,26.00
2023-01-21T17:51:54.083Z,28.08
2023-01-21T17:54:29.486Z,17.48
2023-01-21T17:56:58.874Z,20.87
2023-01-21T17:59:35.332Z,25.85
2023-01-21T18:02:11.279Z,30.50
2023-01-21T18:04:39.418Z,30.98
2023-01-21T18:07:33.220Z,30.08
2023-01-21T18:10:02.837Z,31.88
2023-01-21T18:12:30.241Z,28.98
2023-01-21T18:14:58.538Z,38.45
2023-01-21T18:17:26.337Z,25.55
2023-01-21T18:19:53.827Z,21.50
2023-01-21T18:22:31.907Z,23.33
2023-01-21T18:25:01.486Z,26.17
2023-01-21T18:27:28.906Z,22.88
2023-01-21T18:29:58.239Z,25.02
2023-01-21T18:32:25.571Z,24.80
2023-01-21T18:34:52.885Z,23.40
2023-01-21T18:37:20.698Z,35.83
2023-01-21T18:39:48.133Z,22.65
2023-01-21T18:42:18.141Z,26.30
2023-01-21T18:44:45.714Z,30.85
2023-01-21T18:47:15.067Z,21.33
2023-01-21T18:49:43.520Z,22.08
2023-01-21T18:52:15.253Z,24.27
2023-01-21T18:54:42.730Z,21.85
2023-01-21T18:57:16.725Z,28.63
2023-01-21T18:59:44.241Z,23.63
2023-01-21T19:02:15.759Z,28.10
2023-01-21T19:04:43.689Z,19.80
2023-01-21T19:07:22.013Z,23.98
2023-01-21T19:09:51.212Z,26.60
2023-01-21T19:12:21.240Z,26.55
2023-01-21T19:14:49.232Z,23.73
2023-01-21T19:17:25.854Z,20.95
2023-01-21T19:19:57.212Z,23.23
2023-01-21T19:22:25.638Z,21.85
2023-01-21T19:24:52.921Z,25.35
2023-01-21T19:27:30.147Z,28.90
2023-01-21T19:29:57.468Z,28.30
2023-01-21T19:32:24.996Z,28.80
2023-01-21T19:34:52.472Z,46.17
2023-01-21T19:37:22.983Z,33.50
2023-01-21T19:39:50.378Z,30.20
2023-01-21T19:42:18.262Z,31.25
2023-01-21T19:44:45.951Z,28.80
2023-01-21T19:47:28.700Z,30.25
2023-01-21T19:49:56.122Z,27.00
2023-01-21T19:52:23.456Z,32.67
2023-01-21T19:54:51.057Z,30.33
2023-01-21T19:57:19.069Z,28.58
2023-01-21T19:59:48.322Z,35.05
2023-01-21T20:02:15.702Z,31.63
2023-01-21T20:04:43.080Z,33.50
2023-01-21T20:07:14.726Z,40.50
2023-01-21T20:09:42.308Z,43.78
2023-01-21T20:12:11.102Z,43.33
2023-01-21T20:14:38.442Z,35.28
2023-01-21T20:17:06.072Z,51.75
2023-01-21T20:19:33.540Z,41.05
2023-01-21T20:22:03.019Z,42.28
2023-01-21T20:24:33.869Z,50.03
2023-01-21T20:27:03.302Z,45.20
2023-01-21T20:29:30.878Z,47.22
2023-01-21T20:31:58.546Z,41.92
2023-01-21T20:34:27.686Z,38.70
2023-01-21T20:36:55.656Z,42.83
2023-01-21T20:39:23.111Z,46.85
2023-01-21T20:41:50.464Z,44.13
2023-01-21T20:44:17.952Z,36.17
2023-01-21T20:46:45.938Z,39.03
2023-01-21T20:49:13.809Z,44.83
2023-01-21T20:51:41.107Z,36.38
2023-01-21T20:54:08.400Z,38.17
2023-01-21T20:56:35.796Z,46.15
2023-01-21T20:59:03.181Z,41.55
2023-01-21T21:01:34.621Z,37.13
2023-01-21T21:04:02.430Z,35.47
2023-01-21T21:06:29.756Z,43.00
2023-01-21T21:08:57.334Z,44.70
2023-01-21T21:11:24.720Z,37.38
2023-01-21T21:13:52.612Z,37.95
2023-01-21T21:16:27.818Z,36.92
2023-01-21T21:18:56.509Z,39.55
2023-01-21T21:21:24.715Z,40.08
2023-01-21T21:23:53.199Z,41.83
2023-01-21T21:26:26.172Z,38.88
2023-01-21T21:28:55.051Z,47.53
2023-01-21T21:31:23.509Z,39.30
2023-01-21T21:33:51.203Z,39.92
2023-01-21T21:36:21.584Z,46.58
2023-01-21T21:38:49.390Z,40.17
2023-01-21T21:41:37.116Z,43.45
2023-01-21T21:44:08.687Z,50.67
2023-01-21T21:46:56.176Z,51.78
2023-01-21T21:49:24.015Z,56.15
2023-01-21T21:51:51.621Z,46.42
2023-01-21T21:54:19.542Z,51.80
2023-01-21T21:56:47.558Z,51.70
2023-01-21T21:59:15.211Z,49.00
2023-01-21T22:01:44.237Z,48.05
2023-01-21T22:04:11.943Z,48.25
2023-01-21T22:06:39.514Z,45.92
2023-01-21T22:09:07.665Z,47.05
2023-01-21T22:11:35.377Z,54.47
2023-01-21T22:14:04.841Z,53.03
2023-01-21T22:16:33.036Z,50.85
2023-01-21T22:19:01.537Z,65.38
2023-01-21T22:21:34.101Z,56.30
2023-01-21T22:24:08.438Z,53.88
2023-01-21T22:26:36.028Z,53.58
2023-01-21T22:29:04.877Z,58.88
2023-01-21T22:31:33.332Z,53.65
2023-01-21T22:34:01.060Z,64.05
2023-01-21T22:36:30.042Z,71.30
2023-01-21T22:38:57.764Z,58.03
2023-01-21T22:41:25.707Z,56.92
2023-01-21T22:43:53.299Z,60.38
2023-01-21T22:46:25.942Z,57.28
2023-01-21T22:48:54.680Z,61.75
2023-01-21T22:51:23.187Z,63.42
2023-01-21T22:53:51.776Z,61.05
2023-01-21T22:56:25.348Z,67.50
2023-01-21T22:58:59.405Z,65.93
2023-01-21T23:01:31.098Z,65.55
2023-01-21T23:03:59.561Z,72.57
2023-01-21T23:06:27.037Z,70.75
2023-01-21T23:08:54.673Z,66.90
2023-01-21T23:11:21.970Z,63.22
2023-01-21T23:13:49.931Z,62.15
2023-01-21T23:16:19.352Z,55.60
2023-01-21T23:18:47.041Z,61.78
2023-01-21T23:21:16.828Z,73.45
2023-01-21T23:23:44.170Z,63.80
2023-01-21T23:26:13.040Z,58.83
2023-01-21T23:28:40.520Z,62.13
2023-01-21T23:31:10.637Z,64.18
2023-01-21T23:33:40.057Z,66.13
2023-01-21T23:36:13.796Z,68.20
2023-01-21T23:38:42.290Z,57.72
2023-01-21T23:41:12.248Z,65.40
2023-01-21T23:43:39.741Z,63.03
2023-01-21T23:46:09.053Z,65.63
2023-01-21T23:48:36.351Z,69.28
2023-01-21T23:51:05.519Z,63.03
2023-01-21T23:53:33.853Z,64.57
2023-01-21T23:56:35.291Z,59.70
2023-01-21T23:59:02.605Z,60.95
